Time;durP1;ratioP1;P1;durP2;ratioP2;P2;SDS_P1;SDS_P2;PMS_P1;PMS_P2;Temp;Humidity;BMP_temperature;BMP_pressure;BME280_temperature;BME280_humidity;BME280_pressure;Samples;Min_cycle;Max_cycle;Signal;HPM_P1;HPM_P2
2021/10/12 00:01:37;;;;;;;;;;;11.00;99.90;;;;;;5095396;28;19924;-76
2021/10/12 00:04:04;;;;;;;;;;;11.00;99.90;;;;;;5095419;28;19924;-76
2021/10/12 00:06:31;;;;;;;;;;;11.00;99.90;;;;;;5095065;28;20402;-76
2021/10/12 00:08:58;;;;;;;;;;;11.00;99.90;;;;;;5095219;28;19928;-76
2021/10/12 00:11:27;;;;;;;;;;;11.00;99.90;;;;;;5095288;28;20358;-76
2021/10/12 00:13:54;;;;;;;;;;;11.10;99.90;;;;;;5095340;28;19924;-76
2021/10/12 00:16:24;;;;;;;;;;;11.10;99.90;;;;;;5094854;28;20397;-75
2021/10/12 00:18:53;;;;;;;;;;;11.10;99.90;;;;;;5104553;28;20010;-79
2021/10/12 00:21:21;;;;;;;;;;;11.20;99.90;;;;;;5094721;28;19930;-75
2021/10/12 00:23:49;;;;;;;;;;;11.20;99.90;;;;;;5095132;28;19928;-76
2021/10/12 00:26:18;;;;;;;;;;;11.20;99.90;;;;;;5095359;28;19924;-76
2021/10/12 00:28:48;;;;;;;;;;;11.20;99.90;;;;;;5094799;28;20010;-76
2021/10/12 00:31:16;;;;;;;;;;;11.30;99.90;;;;;;5095097;28;20367;-76
2021/10/12 00:33:44;;;;;;;;;;;11.30;99.90;;;;;;5094978;28;19924;-78
2021/10/12 00:36:12;;;;;;;;;;;11.30;99.90;;;;;;5094799;28;19924;-77
2021/10/12 00:38:39;;;;;;;;;;;11.30;99.90;;;;;;5095219;28;19924;-77
2021/10/12 00:41:08;;;;;;;;;;;11.30;99.90;;;;;;5095019;28;19924;-77
2021/10/12 00:43:39;;;;;;;;;;;11.40;99.90;;;;;;5094983;28;19931;-76
2021/10/12 00:46:08;;;;;;;;;;;11.40;99.90;;;;;;5097018;28;19935;-76
2021/10/12 00:48:44;;;;;;;;;;;11.40;99.90;;;;;;5098981;28;19934;-77
2021/10/12 00:51:12;;;;;;;;;;;11.40;99.90;;;;;;5099170;28;19935;-77
2021/10/12 00:53:44;;;;;;;;;;;11.40;99.90;;;;;;5098782;28;19924;-76
2021/10/12 00:56:14;;;;;;;;;;;11.40;99.90;;;;;;5098742;28;19924;-76
2021/10/12 00:58:42;;;;;;;;;;;11.40;99.90;;;;;;5098804;28;20006;-76
2021/10/12 01:01:13;;;;;;;;;;;11.50;99.90;;;;;;5098704;28;19934;-77
2021/10/12 01:03:40;;;;;;;;;;;11.50;99.90;;;;;;5098877;28;20348;-76
2021/10/12 01:06:08;;;;;;;;;;;11.50;99.90;;;;;;5097305;28;19924;-76
2021/10/12 01:08:38;;;;;;;;;;;11.50;99.90;;;;;;5098940;28;19950;-77
2021/10/12 01:11:07;;;;;;;;;;;11.50;99.90;;;;;;5098646;28;20355;-79
2021/10/12 01:13:34;;;;;;;;;;;11.50;99.90;;;;;;5098474;28;19931;-76
2021/10/12 01:16:03;;;;;;;;;;;11.50;99.90;;;;;;5098478;28;20259;-77
2021/10/12 01:18:32;;;;;;;;;;;11.60;99.90;;;;;;5098359;28;20344;-86
2021/10/12 01:21:02;;;;;;;;;;;11.50;99.90;;;;;;5098433;28;19934;-76
2021/10/12 01:23:31;;;;;;;;;;;11.60;99.90;;;;;;5098354;28;19924;-77
2021/10/12 01:25:59;;;;;;;;;;;11.50;99.90;;;;;;5098416;28;20356;-76
2021/10/12 01:28:29;;;;;;;;;;;11.50;99.90;;;;;;5098244;28;19924;-77
2021/10/12 01:30:56;;;;;;;;;;;11.50;99.90;;;;;;5098259;28;20056;-76
2021/10/12 01:33:24;;;;;;;;;;;11.50;99.90;;;;;;5098152;28;20018;-77
2021/10/12 01:35:57;;;;;;;;;;;11.50;99.90;;;;;;5098265;28;20220;-77
2021/10/12 01:38:26;;;;;;;;;;;11.50;99.90;;;;;;5098156;28;19931;-77
2021/10/12 01:40:56;;;;;;;;;;;11.50;99.90;;;;;;5097269;28;20332;-76
2021/10/12 01:43:25;;;;;;;;;;;11.50;99.90;;;;;;5097930;28;19946;-77
2021/10/12 01:45:53;;;;;;;;;;;11.50;99.90;;;;;;5097987;28;19924;-76
2021/10/12 01:48:21;;;;;;;;;;;11.50;99.90;;;;;;5097226;28;19924;-79
2021/10/12 01:50:52;;;;;;;;;;;11.50;99.90;;;;;;5103130;28;19928;-78
2021/10/12 01:53:20;;;;;;;;;;;11.50;99.90;;;;;;5107729;28;19934;-78
2021/10/12 01:55:49;;;;;;;;;;;11.50;99.90;;;;;;5105951;28;20003;-77
2021/10/12 01:58:20;;;;;;;;;;;11.50;99.90;;;;;;5106903;28;19924;-78
2021/10/12 02:00:48;;;;;;;;;;;11.50;99.90;;;;;;5108375;28;19969;-77
2021/10/12 02:03:16;;;;;;;;;;;11.50;99.90;;;;;;5098484;28;19924;-77
2021/10/12 02:05:44;;;;;;;;;;;11.60;99.90;;;;;;5097224;28;19924;-76
2021/10/12 02:08:12;;;;;;;;;;;11.50;99.90;;;;;;5097613;28;19924;-76
2021/10/12 02:10:40;;;;;;;;;;;11.50;99.90;;;;;;5096397;28;19928;-76
2021/10/12 02:13:13;;;;;;;;;;;11.60;99.90;;;;;;5097422;28;19982;-77
2021/10/12 02:15:41;;;;;;;;;;;11.60;99.90;;;;;;5097443;28;19923;-79
2021/10/12 02:18:11;;;;;;;;;;;11.50;99.90;;;;;;5096931;28;20370;-76
2021/10/12 02:20:39;;;;;;;;;;;11.50;99.90;;;;;;5097344;28;19931;-76
2021/10/12 02:23:07;;;;;;;;;;;11.50;99.90;;;;;;5097093;28;19934;-77
2021/10/12 02:25:35;;;;;;;;;;;11.40;99.90;;;;;;5097073;28;19931;-76
2021/10/12 02:28:04;;;;;;;;;;;11.40;99.90;;;;;;5096875;28;19928;-77
2021/10/12 02:30:32;;;;;;;;;;;11.40;99.90;;;;;;5097182;28;19934;-78
2021/10/12 02:33:00;;;;;;;;;;;11.40;99.90;;;;;;5097039;28;19934;-77
2021/10/12 02:35:27;;;;;;;;;;;11.40;99.90;;;;;;5097201;28;19934;-79
2021/10/12 02:37:54;;;;;;;;;;;11.40;99.90;;;;;;5096708;28;20344;-78
2021/10/12 02:40:21;;;;;;;;;;;11.40;99.90;;;;;;5096848;28;19924;-78
2021/10/12 02:42:47;;;;;;;;;;;11.40;99.90;;;;;;5096748;28;19931;-78
2021/10/12 02:45:14;;;;;;;;;;;11.40;99.90;;;;;;5096880;28;19924;-78
2021/10/12 02:47:42;;;;;;;;;;;11.40;99.90;;;;;;5096771;28;19924;-78
2021/10/12 02:50:09;;;;;;;;;;;11.40;99.90;;;;;;5096602;28;19938;-78
2021/10/12 02:52:36;;;;;;;;;;;11.40;99.90;;;;;;5096014;28;19935;-78
2021/10/12 02:55:04;;;;;;;;;;;11.40;99.90;;;;;;5096451;28;19924;-80
2021/10/12 02:57:32;;;;;;;;;;;11.40;99.90;;;;;;5096514;28;19924;-78
2021/10/12 02:59:58;;;;;;;;;;;11.40;99.90;;;;;;5096617;28;19924;-78
2021/10/12 03:02:25;;;;;;;;;;;11.40;99.90;;;;;;5096444;28;20337;-77
2021/10/12 03:04:53;;;;;;;;;;;11.40;99.90;;;;;;5096266;28;19924;-77
2021/10/12 03:07:20;;;;;;;;;;;11.40;99.90;;;;;;5096532;28;19928;-78
2021/10/12 03:09:47;;;;;;;;;;;11.30;99.90;;;;;;5096379;28;19935;-77
2021/10/12 03:12:14;;;;;;;;;;;11.30;99.90;;;;;;5096118;28;20358;-77
2021/10/12 03:14:41;;;;;;;;;;;11.30;99.90;;;;;;5096236;28;19931;-78
2021/10/12 03:17:08;;;;;;;;;;;11.30;99.90;;;;;;5096224;28;19934;-78
2021/10/12 03:19:35;;;;;;;;;;;11.30;99.90;;;;;;5096128;28;19924;-78
2021/10/12 03:22:09;;;;;;;;;;;11.20;99.90;;;;;;5096053;28;20731;-78
2021/10/12 03:24:36;;;;;;;;;;;11.20;99.90;;;;;;5096057;28;20364;-78
2021/10/12 03:27:03;;;;;;;;;;;11.20;99.90;;;;;;5095897;28;19924;-79
2021/10/12 03:29:30;;;;;;;;;;;11.10;99.90;;;;;;5096020;28;19927;-78
2021/10/12 03:31:59;;;;;;;;;;;11.10;99.90;;;;;;5095898;28;19924;-78
2021/10/12 03:34:26;;;;;;;;;;;11.10;99.90;;;;;;5096004;28;19928;-78
2021/10/12 03:36:53;;;;;;;;;;;11.10;99.90;;;;;;5095819;28;19924;-78
2021/10/12 03:39:21;;;;;;;;;;;11.10;99.90;;;;;;5095903;28;19928;-80
2021/10/12 03:41:50;;;;;;;;;;;11.10;99.90;;;;;;5095611;28;19931;-78
2021/10/12 03:44:16;;;;;;;;;;;11.10;99.90;;;;;;5095784;28;19924;-79
2021/10/12 03:46:43;;;;;;;;;;;11.20;99.90;;;;;;5095760;28;19924;-78
2021/10/12 03:49:10;;;;;;;;;;;11.20;99.90;;;;;;5095834;28;19934;-77
2021/10/12 03:51:37;;;;;;;;;;;11.20;99.90;;;;;;5095849;28;19924;-78
2021/10/12 03:54:04;;;;;;;;;;;11.30;99.90;;;;;;5095332;28;20356;-77
2021/10/12 03:56:32;;;;;;;;;;;11.30;99.90;;;;;;5095397;28;19934;-77
2021/10/12 03:58:59;;;;;;;;;;;11.40;99.90;;;;;;5095624;28;19931;-78
2021/10/12 04:01:26;;;;;;;;;;;11.40;99.90;;;;;;5095320;28;20367;-78
2021/10/12 04:03:53;;;;;;;;;;;11.40;99.90;;;;;;5095276;28;19934;-78
2021/10/12 04:06:20;;;;;;;;;;;11.40;99.90;;;;;;5095428;28;19939;-78
2021/10/12 04:08:47;;;;;;;;;;;11.40;99.90;;;;;;5095337;28;20374;-78
2021/10/12 04:11:14;;;;;;;;;;;11.40;99.90;;;;;;5095249;28;19930;-78
2021/10/12 04:13:42;;;;;;;;;;;11.50;99.90;;;;;;5095295;28;19924;-79
2021/10/12 04:16:09;;;;;;;;;;;11.50;99.90;;;;;;5095294;28;19924;-78
2021/10/12 04:18:36;;;;;;;;;;;11.50;99.90;;;;;;5095208;28;19931;-78
2021/10/12 04:21:03;;;;;;;;;;;11.50;99.90;;;;;;5094907;28;19939;-79
2021/10/12 04:23:30;;;;;;;;;;;11.50;99.90;;;;;;5095389;28;19945;-79
2021/10/12 04:26:01;;;;;;;;;;;11.50;99.90;;;;;;5095141;28;19924;-78
2021/10/12 04:28:28;;;;;;;;;;;11.60;99.90;;;;;;5095379;28;19989;-78
2021/10/12 04:30:56;;;;;;;;;;;11.60;99.90;;;;;;5095097;28;19924;-78
2021/10/12 04:33:23;;;;;;;;;;;11.60;99.90;;;;;;5095002;28;19934;-78
2021/10/12 04:35:50;;;;;;;;;;;11.60;99.90;;;;;;5095178;28;19935;-78
2021/10/12 04:38:17;;;;;;;;;;;11.60;99.90;;;;;;5094876;28;20015;-79
2021/10/12 04:40:43;;;;;;;;;;;11.60;99.90;;;;;;5095238;28;19946;-78
2021/10/12 04:43:10;;;;;;;;;;;11.60;99.90;;;;;;5095032;28;20348;-78
2021/10/12 04:45:38;;;;;;;;;;;11.60;99.90;;;;;;5094998;28;19924;-78
2021/10/12 04:48:06;;;;;;;;;;;11.60;99.90;;;;;;5095036;28;19924;-78
2021/10/12 04:50:33;;;;;;;;;;;11.60;99.90;;;;;;5095229;28;19966;-78
2021/10/12 04:53:00;;;;;;;;;;;11.60;99.90;;;;;;5095067;28;19950;-77
2021/10/12 04:55:28;;;;;;;;;;;11.60;99.90;;;;;;5094833;28;19924;-78
2021/10/12 04:57:54;;;;;;;;;;;11.60;99.90;;;;;;5094840;28;19978;-79
2021/10/12 05:00:21;;;;;;;;;;;11.50;99.90;;;;;;5095056;28;19934;-80
2021/10/12 05:02:48;;;;;;;;;;;11.60;99.90;;;;;;5094769;28;19931;-78
2021/10/12 05:05:16;;;;;;;;;;;11.60;99.90;;;;;;5094757;28;19934;-78
2021/10/12 05:07:43;;;;;;;;;;;11.50;99.90;;;;;;5094950;28;19924;-78
2021/10/12 05:10:10;;;;;;;;;;;11.50;99.90;;;;;;5094712;28;20340;-79
2021/10/12 05:12:37;;;;;;;;;;;11.60;99.90;;;;;;5094703;28;20356;-78
2021/10/12 05:15:04;;;;;;;;;;;11.50;99.90;;;;;;5094584;28;19924;-78
2021/10/12 05:17:36;;;;;;;;;;;11.60;99.90;;;;;;5094647;28;19924;-78
2021/10/12 05:20:03;;;;;;;;;;;11.50;99.90;;;;;;5094843;28;19936;-77
2021/10/12 05:22:31;;;;;;;;;;;11.50;99.90;;;;;;5094697;28;19932;-78
2021/10/12 05:24:58;;;;;;;;;;;11.50;99.90;;;;;;5094571;28;19925;-77
2021/10/12 05:27:25;;;;;;;;;;;11.60;99.90;;;;;;5094751;28;19929;-78
2021/10/12 05:29:52;;;;;;;;;;;11.50;99.90;;;;;;5094540;28;19924;-77
2021/10/12 05:32:18;;;;;;;;;;;11.50;99.90;;;;;;5095235;28;19924;-78
2021/10/12 05:34:45;;;;;;;;;;;11.50;99.90;;;;;;5098179;28;19934;-78
2021/10/12 05:37:12;;;;;;;;;;;11.50;99.90;;;;;;5097914;28;19989;-78
2021/10/12 05:39:40;;;;;;;;;;;11.50;99.90;;;;;;5098102;28;19924;-77
2021/10/12 05:42:08;;;;;;;;;;;11.60;99.90;;;;;;5098334;28;19924;-79
2021/10/12 05:44:34;;;;;;;;;;;11.50;99.90;;;;;;5098008;28;19924;-78
2021/10/12 05:47:01;;;;;;;;;;;11.60;99.90;;;;;;5097877;28;19935;-78
2021/10/12 05:49:28;;;;;;;;;;;11.60;99.90;;;;;;5097958;28;19934;-80
2021/10/12 05:51:55;;;;;;;;;;;11.60;99.90;;;;;;5097996;28;19934;-78
2021/10/12 05:54:25;;;;;;;;;;;11.60;99.90;;;;;;5097674;28;19924;-78
2021/10/12 05:56:56;;;;;;;;;;;11.60;99.90;;;;;;5097879;28;19924;-78
2021/10/12 05:59:23;;;;;;;;;;;11.50;99.90;;;;;;5097724;28;19924;-78
2021/10/12 06:01:50;;;;;;;;;;;11.50;99.90;;;;;;5097872;28;19928;-79
2021/10/12 06:04:17;;;;;;;;;;;11.60;99.90;;;;;;5097466;28;20264;-78
2021/10/12 06:06:44;;;;;;;;;;;11.60;99.90;;;;;;5097829;28;19924;-78
2021/10/12 06:09:11;;;;;;;;;;;11.50;99.90;;;;;;5097451;28;19934;-78
2021/10/12 06:11:37;;;;;;;;;;;11.60;99.90;;;;;;5097721;28;19924;-81
2021/10/12 06:14:06;;;;;;;;;;;11.60;99.90;;;;;;5097529;28;19924;-85
2021/10/12 06:16:32;;;;;;;;;;;11.60;99.90;;;;;;5097441;28;20360;-78
2021/10/12 06:18:59;;;;;;;;;;;11.60;99.90;;;;;;5097268;28;19930;-77
2021/10/12 06:21:26;;;;;;;;;;;11.70;99.90;;;;;;5097155;28;19930;-78
2021/10/12 06:23:53;;;;;;;;;;;11.70;99.90;;;;;;5097469;28;19934;-78
2021/10/12 06:26:20;;;;;;;;;;;11.70;99.90;;;;;;5097177;28;20341;-78
2021/10/12 06:28:47;;;;;;;;;;;11.70;99.90;;;;;;5097143;28;19924;-77
2021/10/12 06:31:15;;;;;;;;;;;11.70;99.90;;;;;;5097213;28;19923;-78
2021/10/12 06:33:42;;;;;;;;;;;11.70;99.90;;;;;;5097112;28;20254;-77
2021/10/12 06:36:09;;;;;;;;;;;11.70;99.90;;;;;;5096794;28;19924;-77
2021/10/12 06:38:39;;;;;;;;;;;11.80;99.90;;;;;;5097010;28;19924;-77
2021/10/12 06:41:07;;;;;;;;;;;11.80;99.90;;;;;;5096822;28;19931;-77
2021/10/12 06:43:35;;;;;;;;;;;11.80;99.90;;;;;;5096470;28;20351;-77
2021/10/12 06:46:03;;;;;;;;;;;11.80;99.90;;;;;;5096856;28;19927;-77
2021/10/12 06:48:33;;;;;;;;;;;11.80;99.90;;;;;;5096842;28;19936;-77
2021/10/12 06:51:01;;;;;;;;;;;11.90;99.90;;;;;;5096665;28;20020;-78
2021/10/12 06:53:29;;;;;;;;;;;11.90;99.90;;;;;;5096613;28;19931;-77
2021/10/12 06:55:57;;;;;;;;;;;11.80;99.90;;;;;;5096622;28;19930;-78
2021/10/12 06:58:25;;;;;;;;;;;11.90;99.90;;;;;;5096547;28;19924;-77
2021/10/12 07:00:55;;;;;;;;;;;11.90;99.90;;;;;;5096370;28;20348;-78
2021/10/12 07:03:23;;;;;;;;;;;11.90;99.90;;;;;;5096428;28;19924;-78
2021/10/12 07:05:52;;;;;;;;;;;11.90;99.90;;;;;;5096442;28;19924;-78
2021/10/12 07:08:20;;;;;;;;;;;11.90;99.90;;;;;;5096502;28;19924;-78
2021/10/12 07:10:48;;;;;;;;;;;11.90;99.90;;;;;;5096578;28;19924;-78
2021/10/12 07:13:17;;;;;;;;;;;12.00;99.90;;;;;;5095985;28;20023;-78
2021/10/12 07:15:47;;;;;;;;;;;12.00;99.90;;;;;;5096212;28;20344;-79
2021/10/12 07:18:18;;;;;;;;;;;12.00;99.90;;;;;;5096452;28;19946;-78
2021/10/12 07:20:45;;;;;;;;;;;12.00;99.90;;;;;;5096182;28;19935;-77
2021/10/12 07:23:17;;;;;;;;;;;12.00;99.90;;;;;;5096325;28;19934;-78
2021/10/12 07:25:45;;;;;;;;;;;12.10;99.90;;;;;;5096063;28;19977;-77
2021/10/12 07:28:13;;;;;;;;;;;12.10;99.90;;;;;;5096118;28;20260;-78
2021/10/12 07:30:41;;;;;;;;;;;12.10;99.90;;;;;;5095995;28;19930;-78
2021/10/12 07:33:10;;;;;;;;;;;12.20;99.90;;;;;;5096073;28;19950;-80
2021/10/12 07:35:42;;;;;;;;;;;12.20;99.90;;;;;;5095981;28;19934;-77
2021/10/12 07:38:13;;;;;;;;;;;12.20;99.90;;;;;;5095663;28;19996;-78
2021/10/12 07:40:43;;;;;;;;;;;12.30;99.90;;;;;;5095770;28;19989;-79
2021/10/12 07:43:11;;;;;;;;;;;12.30;99.90;;;;;;5095976;28;19924;-77
2021/10/12 07:45:39;;;;;;;;;;;12.30;99.90;;;;;;5095757;28;19932;-78
2021/10/12 07:48:06;;;;;;;;;;;12.30;99.90;;;;;;5095631;28;19924;-77
2021/10/12 07:50:34;;;;;;;;;;;12.40;99.90;;;;;;5095799;28;19928;-78
2021/10/12 07:53:02;;;;;;;;;;;12.40;99.90;;;;;;5095606;28;19951;-77
2021/10/12 07:55:35;;;;;;;;;;;12.40;99.90;;;;;;5094698;28;19924;-80
2021/10/12 07:58:05;;;;;;;;;;;12.50;99.90;;;;;;5095430;28;20348;-80
2021/10/12 08:00:33;;;;;;;;;;;12.50;99.90;;;;;;5095634;28;19938;-77
2021/10/12 08:03:03;;;;;;;;;;;12.50;99.90;;;;;;5095458;28;19924;-77
2021/10/12 08:05:33;;;;;;;;;;;12.60;99.90;;;;;;5095410;28;19981;-78
2021/10/12 08:08:01;;;;;;;;;;;12.60;99.90;;;;;;5095527;28;19932;-77
2021/10/12 08:10:29;;;;;;;;;;;12.60;99.90;;;;;;5095192;28;19924;-78
2021/10/12 08:13:03;;;;;;;;;;;12.60;99.90;;;;;;5094653;28;19924;-79
2021/10/12 08:15:30;;;;;;;;;;;12.60;99.90;;;;;;5096529;28;20309;-78
2021/10/12 08:17:59;;;;;;;;;;;12.60;99.90;;;;;;5095229;28;20234;-78
2021/10/12 08:20:27;;;;;;;;;;;12.70;99.90;;;;;;5095358;28;19924;-78
2021/10/12 08:22:56;;;;;;;;;;;12.70;99.90;;;;;;5095241;28;19928;-78
2021/10/12 08:25:24;;;;;;;;;;;12.70;99.90;;;;;;5095388;28;19924;-78
2021/10/12 08:27:52;;;;;;;;;;;12.70;99.90;;;;;;5095355;28;19982;-78
2021/10/12 08:30:20;;;;;;;;;;;12.80;99.90;;;;;;5095371;28;19947;-79
2021/10/12 08:32:49;;;;;;;;;;;12.80;99.90;;;;;;5095150;28;19934;-80
2021/10/12 08:35:17;;;;;;;;;;;12.80;99.90;;;;;;5094991;28;19934;-79
2021/10/12 08:37:48;;;;;;;;;;;12.80;99.90;;;;;;5094866;28;19946;-79
2021/10/12 08:40:17;;;;;;;;;;;12.80;99.90;;;;;;5095223;28;19924;-78
2021/10/12 08:42:45;;;;;;;;;;;12.80;99.90;;;;;;5094910;28;19924;-79
2021/10/12 08:45:14;;;;;;;;;;;12.80;99.90;;;;;;5094927;28;19935;-78
2021/10/12 08:47:47;;;;;;;;;;;12.90;99.90;;;;;;5095069;28;19927;-78
2021/10/12 08:50:19;;;;;;;;;;;12.90;99.90;;;;;;5095446;28;19934;-79
2021/10/12 08:52:47;;;;;;;;;;;12.90;99.90;;;;;;5094946;28;20412;-79
2021/10/12 08:55:15;;;;;;;;;;;12.90;99.90;;;;;;5094818;28;20379;-77
2021/10/12 08:57:44;;;;;;;;;;;12.90;99.90;;;;;;5094913;28;19932;-77
2021/10/12 09:00:12;;;;;;;;;;;12.90;99.90;;;;;;5094849;28;20368;-78
2021/10/12 09:02:56;;;;;;;;;;;12.90;99.90;;;;;;5094871;28;19935;-77
2021/10/12 09:05:26;;;;;;;;;;;12.90;99.90;;;;;;5091871;28;19924;-78
2021/10/12 09:07:54;;;;;;;;;;;13.00;99.90;;;;;;5098188;28;19924;-79
2021/10/12 09:10:21;;;;;;;;;;;13.10;99.90;;;;;;5098558;28;19935;-78
2021/10/12 09:12:49;;;;;;;;;;;13.10;99.90;;;;;;5098729;28;20406;-78
2021/10/12 09:15:18;;;;;;;;;;;13.10;99.90;;;;;;5098646;28;19928;-78
2021/10/12 09:17:46;;;;;;;;;;;13.20;99.90;;;;;;5098405;28;20364;-79
2021/10/12 09:20:28;;;;;;;;;;;13.20;99.90;;;;;;5097798;28;19924;-78
2021/10/12 09:23:07;;;;;;;;;;;13.30;99.90;;;;;;5098463;28;19935;-78
2021/10/12 09:25:34;;;;;;;;;;;13.30;99.90;;;;;;5098283;28;19924;-79
2021/10/12 09:28:01;;;;;;;;;;;13.30;99.90;;;;;;5098401;28;19928;-78
2021/10/12 09:30:29;;;;;;;;;;;13.30;99.90;;;;;;5098440;28;19977;-77
2021/10/12 09:33:05;;;;;;;;;;;13.30;99.90;;;;;;5098185;28;20261;-78
2021/10/12 09:35:34;;;;;;;;;;;13.30;99.90;;;;;;5097975;28;19938;-78
2021/10/12 09:38:03;;;;;;;;;;;13.30;99.90;;;;;;5097820;28;19924;-78
2021/10/12 09:40:33;;;;;;;;;;;13.30;99.90;;;;;;5098083;28;19924;-78
2021/10/12 09:43:01;;;;;;;;;;;13.30;99.90;;;;;;5098369;28;19935;-79
2021/10/12 09:45:38;;;;;;;;;;;13.30;99.90;;;;;;5098223;28;19950;-78
2021/10/12 09:48:20;;;;;;;;;;;13.40;99.90;;;;;;5097864;28;19935;-78
2021/10/12 09:50:47;;;;;;;;;;;13.50;99.90;;;;;;5094731;28;19924;-78
2021/10/12 09:53:16;;;;;;;;;;;13.50;99.90;;;;;;5097968;28;19924;-78
2021/10/12 09:55:44;;;;;;;;;;;13.60;99.90;;;;;;5097452;28;20252;-78
2021/10/12 09:58:11;;;;;;;;;;;13.70;99.90;;;;;;5097821;28;19938;-80
2021/10/12 10:00:38;;;;;;;;;;;13.80;99.90;;;;;;5097101;28;19934;-79
2021/10/12 10:03:05;;;;;;;;;;;13.80;99.90;;;;;;5097358;28;20255;-78
2021/10/12 10:05:32;;;;;;;;;;;13.90;99.90;;;;;;5097498;28;19946;-79
2021/10/12 10:07:59;;;;;;;;;;;13.90;99.90;;;;;;5097735;28;19924;-78
2021/10/12 10:10:25;;;;;;;;;;;14.00;99.90;;;;;;5097662;28;19924;-78
2021/10/12 10:12:54;;;;;;;;;;;14.10;99.90;;;;;;5097524;28;20256;-78
2021/10/12 10:15:21;;;;;;;;;;;14.10;99.90;;;;;;5097307;28;19935;-78
2021/10/12 10:17:48;;;;;;;;;;;14.10;99.90;;;;;;5096674;28;19932;-78
2021/10/12 10:20:14;;;;;;;;;;;14.10;99.90;;;;;;5097255;28;19940;-78
2021/10/12 10:22:43;;;;;;;;;;;14.10;99.90;;;;;;5097492;28;19935;-79
2021/10/12 10:25:26;;;;;;;;;;;14.10;99.90;;;;;;5097180;28;19924;-78
2021/10/12 10:27:55;;;;;;;;;;;14.10;99.90;;;;;;5097101;28;19983;-80
2021/10/12 10:30:28;;;;;;;;;;;14.10;99.90;;;;;;5097259;28;19935;-79
2021/10/12 10:32:56;;;;;;;;;;;14.10;99.90;;;;;;5097366;28;19924;-80
2021/10/12 10:35:32;;;;;;;;;;;14.10;99.90;;;;;;5097194;28;19956;-79
2021/10/12 10:38:14;;;;;;;;;;;14.10;99.90;;;;;;5096761;28;20358;-79
2021/10/12 10:40:41;;;;;;;;;;;14.10;99.90;;;;;;5096923;28;19928;-80
2021/10/12 10:43:09;;;;;;;;;;;14.00;99.90;;;;;;5097170;28;19931;-78
2021/10/12 10:45:55;;;;;;;;;;;14.00;99.90;;;;;;5096696;28;20351;-78
2021/10/12 10:48:25;;;;;;;;;;;13.90;99.90;;;;;;5096943;28;19924;-80
2021/10/12 10:50:54;;;;;;;;;;;13.90;99.90;;;;;;5096743;28;20225;-78
2021/10/12 10:53:37;;;;;;;;;;;13.90;99.90;;;;;;5096655;28;19974;-78
2021/10/12 10:56:05;;;;;;;;;;;14.00;99.90;;;;;;5093588;28;20394;-78
2021/10/12 10:58:34;;;;;;;;;;;13.90;99.90;;;;;;5096510;28;19934;-79
2021/10/12 11:01:01;;;;;;;;;;;13.90;99.90;;;;;;5096585;28;20341;-78
2021/10/12 11:03:59;;;;;;;;;;;13.90;99.90;;;;;;5096530;28;19932;-78
2021/10/12 11:06:27;;;;;;;;;;;13.80;99.90;;;;;;5096399;28;20357;-78
2021/10/12 11:08:59;;;;;;;;;;;13.90;99.90;;;;;;5096397;28;19924;-78
2021/10/12 11:11:31;;;;;;;;;;;13.90;99.90;;;;;;5096346;28;20318;-78
2021/10/12 11:14:00;;;;;;;;;;;13.90;99.90;;;;;;5096380;28;19924;-78
2021/10/12 11:16:33;;;;;;;;;;;13.90;99.90;;;;;;5096547;28;19939;-78
2021/10/12 11:19:03;;;;;;;;;;;13.90;99.90;;;;;;5096355;28;19924;-79
2021/10/12 11:21:30;;;;;;;;;;;13.90;99.90;;;;;;5096046;28;20340;-78
2021/10/12 11:23:59;;;;;;;;;;;14.00;99.90;;;;;;5096198;28;19931;-78
2021/10/12 11:26:28;;;;;;;;;;;14.00;99.90;;;;;;5096311;28;19924;-78
2021/10/12 11:28:56;;;;;;;;;;;14.00;99.90;;;;;;5095947;28;19924;-78
2021/10/12 11:31:29;;;;;;;;;;;14.00;99.90;;;;;;5096136;28;19924;-80
2021/10/12 11:33:57;;;;;;;;;;;14.00;99.90;;;;;;5095900;28;19924;-79
2021/10/12 11:36:25;;;;;;;;;;;14.00;99.90;;;;;;5095467;28;20354;-78
2021/10/12 11:38:53;;;;;;;;;;;14.10;99.90;;;;;;5095788;28;20378;-78
2021/10/12 11:41:25;;;;;;;;;;;14.10;99.90;;;;;;5095746;28;19932;-79
2021/10/12 11:43:54;;;;;;;;;;;14.20;99.90;;;;;;5096058;28;19928;-77
2021/10/12 11:46:27;;;;;;;;;;;14.20;99.90;;;;;;5095809;28;19924;-78
2021/10/12 11:48:57;;;;;;;;;;;14.30;99.90;;;;;;5095828;28;19931;-79
2021/10/12 11:51:25;;;;;;;;;;;14.30;99.90;;;;;;5095573;28;19931;-79
2021/10/12 11:53:59;;;;;;;;;;;14.40;99.90;;;;;;5095379;28;20348;-79
2021/10/12 11:56:31;;;;;;;;;;;14.40;99.90;;;;;;5112178;28;19967;-79
2021/10/12 11:58:59;;;;;;;;;;;14.40;99.90;;;;;;5116041;28;19992;-80
2021/10/12 12:01:31;;;;;;;;;;;14.30;99.90;;;;;;5115001;28;20194;-78
2021/10/12 12:03:59;;;;;;;;;;;14.30;99.90;;;;;;5115683;28;20230;-80
2021/10/12 12:06:28;;;;;;;;;;;14.30;99.90;;;;;;5115714;28;20335;-78
2021/10/12 12:08:56;;;;;;;;;;;14.20;99.90;;;;;;5115897;28;20240;-78
2021/10/12 12:11:25;;;;;;;;;;;14.10;99.90;;;;;;5115750;28;19923;-79
2021/10/12 12:13:53;;;;;;;;;;;14.10;99.90;;;;;;5115881;28;19992;-78
2021/10/12 12:16:22;;;;;;;;;;;14.10;99.90;;;;;;5115518;28;19971;-79
2021/10/12 12:18:55;;;;;;;;;;;14.10;99.90;;;;;;5115665;28;20343;-78
2021/10/12 12:21:30;;;;;;;;;;;14.10;99.90;;;;;;5115654;28;19928;-77
2021/10/12 12:23:59;;;;;;;;;;;14.00;99.90;;;;;;5115538;28;19923;-78
2021/10/12 12:26:29;;;;;;;;;;;14.00;99.90;;;;;;5115552;28;19934;-79
2021/10/12 12:29:12;;;;;;;;;;;13.90;99.90;;;;;;5115488;28;19969;-79
2021/10/12 12:31:45;;;;;;;;;;;13.90;99.90;;;;;;5112174;28;19924;-78
2021/10/12 12:34:18;;;;;;;;;;;13.90;99.90;;;;;;5115553;28;19934;-78
2021/10/12 12:36:46;;;;;;;;;;;13.90;99.90;;;;;;5114246;28;19923;-78
2021/10/12 12:39:14;;;;;;;;;;;13.90;99.90;;;;;;5115399;28;19923;-78
2021/10/12 12:41:47;;;;;;;;;;;14.00;99.90;;;;;;5116895;28;19923;-78
2021/10/12 12:44:22;;;;;;;;;;;14.00;99.90;;;;;;5119673;28;19931;-78
2021/10/12 12:46:59;;;;;;;;;;;14.00;99.90;;;;;;5119478;28;19924;-78
2021/10/12 12:49:29;;;;;;;;;;;14.10;99.90;;;;;;5119429;28;19923;-80
2021/10/12 12:51:57;;;;;;;;;;;14.10;99.90;;;;;;5119633;28;19924;-79
2021/10/12 12:54:34;;;;;;;;;;;14.10;99.90;;;;;;5119276;28;20347;-78
2021/10/12 12:57:08;;;;;;;;;;;14.10;99.90;;;;;;5119243;28;20400;-78
2021/10/12 12:59:39;;;;;;;;;;;14.10;99.90;;;;;;5119194;28;19924;-78
2021/10/12 13:02:17;;;;;;;;;;;14.20;99.90;;;;;;5119254;28;19924;-78
2021/10/12 13:04:46;;;;;;;;;;;14.20;99.90;;;;;;5119128;28;19935;-78
2021/10/12 13:07:15;;;;;;;;;;;14.20;99.90;;;;;;5119245;28;19924;-77
2021/10/12 13:09:42;;;;;;;;;;;14.20;99.90;;;;;;5119446;28;19947;-80
2021/10/12 13:12:12;;;;;;;;;;;14.20;99.90;;;;;;5118942;28;19924;-78
2021/10/12 13:14:47;;;;;;;;;;;14.20;99.90;;;;;;5118923;28;19986;-79
2021/10/12 13:17:16;;;;;;;;;;;14.20;99.90;;;;;;5118873;28;20354;-78
2021/10/12 13:19:44;;;;;;;;;;;14.20;99.90;;;;;;5112677;28;19935;-78
2021/10/12 13:22:13;;;;;;;;;;;14.20;99.90;;;;;;5111070;28;19931;-78
2021/10/12 13:24:44;;;;;;;;;;;14.20;99.90;;;;;;5098299;28;19932;-78
2021/10/12 13:27:11;;;;;;;;;;;14.20;99.90;;;;;;5098337;28;19935;-78
2021/10/12 13:29:40;;;;;;;;;;;14.20;99.90;;;;;;5098378;28;20378;-78
2021/10/12 13:32:08;;;;;;;;;;;14.20;99.90;;;;;;5098525;28;19924;-79
2021/10/12 13:34:36;;;;;;;;;;;14.10;99.90;;;;;;5098111;28;19925;-78
2021/10/12 13:37:05;;;;;;;;;;;14.20;99.90;;;;;;5097738;28;20366;-78
2021/10/12 13:39:34;;;;;;;;;;;14.20;99.90;;;;;;5098282;28;19923;-77
2021/10/12 13:42:05;;;;;;;;;;;14.20;99.90;;;;;;5097974;28;20361;-84
2021/10/12 13:44:35;;;;;;;;;;;14.20;99.90;;;;;;5098592;28;19947;-79
2021/10/12 13:47:05;;;;;;;;;;;14.30;99.90;;;;;;5098603;28;19932;-76
2021/10/12 13:49:33;;;;;;;;;;;14.30;99.90;;;;;;5097987;28;20351;-75
2021/10/12 13:52:01;;;;;;;;;;;14.30;99.90;;;;;;5098437;28;19924;-75
2021/10/12 13:54:29;;;;;;;;;;;14.30;99.90;;;;;;5096398;28;19934;-84
2021/10/12 13:56:59;;;;;;;;;;;14.40;99.90;;;;;;5097863;28;19924;-84
2021/10/12 13:59:27;;;;;;;;;;;14.40;99.90;;;;;;5097778;28;19924;-75
2021/10/12 14:01:58;;;;;;;;;;;14.40;99.90;;;;;;5097807;28;19924;-75
2021/10/12 14:04:25;;;;;;;;;;;14.50;99.90;;;;;;5097646;28;19934;-76
2021/10/12 14:06:53;;;;;;;;;;;14.50;99.90;;;;;;5097616;28;19925;-76
2021/10/12 14:09:21;;;;;;;;;;;14.50;99.90;;;;;;5097790;28;19924;-76
2021/10/12 14:11:50;;;;;;;;;;;14.60;99.90;;;;;;5097791;28;19924;-76
2021/10/12 14:14:31;;;;;;;;;;;14.60;99.90;;;;;;5097602;28;19924;-77
2021/10/12 14:16:59;;;;;;;;;;;14.70;99.90;;;;;;5097425;28;19930;-78
2021/10/12 14:19:28;;;;;;;;;;;14.70;99.90;;;;;;5097240;28;19924;-77
2021/10/12 14:21:56;;;;;;;;;;;14.70;99.90;;;;;;5097663;28;19924;-77
2021/10/12 14:24:24;;;;;;;;;;;14.70;99.90;;;;;;5097337;28;20348;-77
2021/10/12 14:26:52;;;;;;;;;;;14.70;99.90;;;;;;5097351;28;19931;-77